Aviation Digital Data Service (ADDS)

Output produced by METARs form (0123 UTC 23 July 2017)
found at http://www.aviationweather.gov/adds/metars/
 
TAF TFFR 222300Z 2300/2324 12008KT 9999 SCT025 SCT070 
     PROB30 
     TEMPO 2300/2312 4000 SHRA SCT018TCU 
     PROB30 
     TEMPO 2300/2322 1200 TSRA FEW013CB BKN018TCU 
     BECMG 2322/2324 SCT025